Aviation Digital Data Service (ADDS)

Output produced by METARs form (1839 UTC 18 June 2019)
found at http://www.aviationweather.gov/metar/data/
 
KALM 181835Z AUTO 21007KT 10SM CLR 31/05 A3005 RMK AO2
KABQ 181752Z VRB03KT 10SM FEW070 SCT250 26/07 A3014 RMK AO2 SLP127 T02560072 10256 20111 58006
KABQ 181739Z 1818/1918 25009KT P6SM FEW100 
     FM182000 25012G22KT P6SM SCT100 
     FM182200 26016G26KT P6SM VCSH BKN100 
     FM190100 28010KT P6SM SCT120 
     FM190900 VRB06KT P6SM FEW120
       
KAEG 181749Z 25004KT 10SM SCT080 SCT150 25/07 A3017
KAEG 181739Z 1818/1918 24009KT P6SM FEW100 
     FM182000 25012G22KT P6SM SCT100 
     FM182200 26017G27KT P6SM VCSH BKN100 
     FM190100 28011KT P6SM SCT120 
     FM191000 26006KT P6SM FEW120 
     FM191700 28014G24KT P6SM FEW120
       
KAXX 181835Z AUTO 28014G23KT 10SM 18/03 A3028 RMK AO2 T01830032
KATS 181835Z AUTO 13009KT 10SM CLR 29/17 A3001 RMK AO2
KCNM 181753Z AUTO VRB05KT 10SM CLR 28/16 A2999 RMK AO2 SLP097 T02830161 10283 20178 58013
KCNM 181726Z 1818/1918 17007KT P6SM SKC 
     FM182000 24014G20KT P6SM SCT060 BKN250 
     FM190200 24008KT P6SM FEW300
       
KCAO 181755Z AUTO A3004 RMK AO2 SLPNO 6//// 57009 PWINO
KCVN 181756Z AUTO 24010G17KT 10SM CLR 27/16 A3006 RMK AO2 SLP142 T02670156 10267 20144 56006
KDMN 181753Z AUTO 24011G20KT 10SM CLR 31/M01 A3007 RMK AO2 SLP104 T03111006 10317 20156 58006
KDMN 181721Z 1818/1918 25015G22KT P6SM SKC 
     FM190400 27009KT P6SM SKC 
     FM191700 27012G20KT P6SM SKC
       
KFMN 181753Z VRB03KT 10SM CLR 24/05 A3013 RMK AO2 SLP151 T02440050 10250 20106 57006
KFMN 181739Z 1818/1918 26011KT P6SM FEW100 
     FM182000 27015G25KT P6SM SCT100 
     FM182200 30015G25KT P6SM VCTS BKN100CB 
     TEMPO 1822/1901 VRB22G38KT 6SM BLDU 
     FM190100 33012G20KT P6SM VCSH BKN100 
     FM190300 VRB06KT P6SM SCT120
       
KGUP 181753Z AUTO 21009G15KT 10SM CLR 26/M02 A3020 RMK AO2 SLP081 T02561022 10256 20056 58003
KGUP 181739Z 1818/1918 25012G20KT P6SM SCT090 
     FM182200 27013G23KT P6SM VCSH BKN090 
     FM190200 32008KT P6SM SCT110 
     FM190500 VRB05KT P6SM SKC 
     FM191700 26011KT P6SM FEW090
       
KGNT 181835Z AUTO 24013G18KT 10SM SCT120 26/M02 A3020 RMK AO2 LTG DSNT N T02641023
KHOB 181750Z 19007G14KT 10SM SKC 29/16 A3004
KHOB 181726Z 1818/1918 19012G20KT P6SM SKC 
     FM182000 18013G20KT P6SM SCT060 BKN250 
     FM190200 14010KT P6SM FEW300
       
KLRU 181835Z AUTO 27007G15KT 10SM CLR 32/00 A3008 RMK AO2 T03240000
KLRU 181721Z 1818/1918 26006KT P6SM FEW250 
     FM182000 25015G24KT P6SM FEW250 
     FM190400 27010KT P6SM SKC
       
KLVS 181753Z AUTO 21007KT 170V250 10SM CLR 24/07 A3017 RMK AO2 SLP114 T02440072 10244 20089 58008
KLVS 181739Z 1818/1918 22011KT P6SM FEW090 
     TEMPO 1818/1820 23011G21KT SCT090 
     FM182000 24020G30KT P6SM VCSH SCT090 BKN130 
     FM190200 29010KT P6SM SCT110 
     FM191200 26011KT P6SM FEW110
       
KLAM 181835Z AUTO 20003KT 10SM 22/06 A3023 RMK AO2 T02170060
K0E0 181835Z AUTO 23008G16KT 10SM BKN100 29/M01 A3017 RMK AO2 T02861008
KRTN 181753Z AUTO 20009G17KT 10SM FEW120 24/08 A3010 RMK AO2 SLP099 6//// T02440083 10250 20089
KROW 181751Z 16011G16KT 10SM CLR 29/14 A3001 RMK AO2 SLP092 T02890144 10289 20183 58012
KROW 181739Z 1818/1918 17011KT P6SM SCT100 
     FM182100 19012G22KT P6SM VCTS BKN100CB 
     TEMPO 1821/1824 VRB20G35KT 
     FM190000 24015G25KT P6SM BKN100 
     FM190200 24008KT P6SM SCT100
       
KSRR 181835Z AUTO 29007KT 10SM BKN110 25/M01 A3022 RMK AO2
KSAF 181753Z 23010G17KT 10SM CLR 24/06 A3018 RMK AO2 SLP128 T02440061 10250 20078 57004
KSAF 181739Z 1818/1918 24011KT P6SM SCT090 
     FM181900 25015G25KT P6SM SCT090 
     FM182200 26015G25KT P6SM VCTS BKN090CB 
     TEMPO 1822/1901 VRB20G35KT 
     FM190100 30011KT P6SM SCT110 
     FM190500 36009KT P6SM FEW110 
     FM191600 28011KT P6SM FEW110
       
KSXU 181835Z AUTO 00000KT 10SM CLR 29/09 A3004 RMK AO2 T02900087
KSVC 181835Z AUTO 22008KT 10SM CLR 30/M02 A3014 RMK AO2 T03011018
KONM 181835Z AUTO 00000KT 10SM CLR 29/01 A3008 RMK AO2 T02880013
KSKX 181756Z AUTO 22009KT 10SM CLR 23/06 A3023 RMK AO2 SLP178 6//// T02280061 10228 20039 58009 $
KTCS 181753Z AUTO 16008KT 10SM CLR 31/02 A3008 RMK AO2 SLP092 T03060017 10306 20178 58008
KTCS 181721Z 1818/1918 16008KT P6SM FEW250 
     FM182000 20015G22KT P6SM FEW150 
     FM190200 29008KT P6SM SKC 
     FM191200 VRB04KT P6SM SKC
       
KTCC 181753Z AUTO 25011KT 10SM CLR 29/13 A2999 RMK AO2 SLP095 T02940133 10300 20150 56014
KTCC 181739Z 1818/1918 25016G26KT P6SM SCT090 
     FM182300 25020G30KT P6SM VCSH BKN100 
     FM190200 30010KT P6SM SCT120 
     FM190500 01011KT P6SM SCT020 
     FM191000 02007KT P6SM SCT010 BKN020 
     FM191600 28008KT P6SM SCT025